sensor_id;sensor_type;location;lat;lon;timestamp;temperature;humidity
66184;DHT22;52989;48.796;9.806;2023-05-15T00:00:15;11.20;99.90
66184;DHT22;52989;48.796;9.806;2023-05-15T00:02:41;11.00;99.90
66184;DHT22;52989;48.796;9.806;2023-05-15T00:05:08;10.90;99.90
66184;DHT22;52989;48.796;9.806;2023-05-15T00:07:34;10.70;99.90
66184;DHT22;52989;48.796;9.806;2023-05-15T00:10:00;10.70;99.90
66184;DHT22;52989;48.796;9.806;2023-05-15T00:12:25;10.60;99.90
66184;DHT22;52989;48.796;9.806;2023-05-15T00:14:51;10.60;99.90
66184;DHT22;52989;48.796;9.806;2023-05-15T00:17:17;10.60;99.90
66184;DHT22;52989;48.796;9.806;2023-05-15T00:19:42;10.60;99.90
66184;DHT22;52989;48.796;9.806;2023-05-15T00:22:08;10.70;99.90
66184;DHT22;52989;48.796;9.806;2023-05-15T00:24:33;10.70;99.90
66184;DHT22;52989;48.796;9.806;2023-05-15T00:26:59;10.70;99.90
66184;DHT22;52989;48.796;9.806;2023-05-15T00:29:24;11.10;99.90
66184;DHT22;52989;48.796;9.806;2023-05-15T00:31:50;10.80;99.90
66184;DHT22;52989;48.796;9.806;2023-05-15T00:34:15;10.70;99.90
66184;DHT22;52989;48.796;9.806;2023-05-15T00:36:41;10.80;99.90
66184;DHT22;52989;48.796;9.806;2023-05-15T00:39:06;10.70;99.90
66184;DHT22;52989;48.796;9.806;2023-05-15T00:41:32;10.60;99.90
66184;DHT22;52989;48.796;9.806;2023-05-15T00:43:57;10.40;99.90
66184;DHT22;52989;48.796;9.806;2023-05-15T00:46:25;10.20;99.90
66184;DHT22;52989;48.796;9.806;2023-05-15T00:48:51;10.10;99.90
66184;DHT22;52989;48.796;9.806;2023-05-15T00:51:17;10.00;99.90
66184;DHT22;52989;48.796;9.806;2023-05-15T00:53:43;9.90;99.90
66184;DHT22;52989;48.796;9.806;2023-05-15T00:56:09;9.90;99.90
66184;DHT22;52989;48.796;9.806;2023-05-15T00:58:37;9.90;99.90
66184;DHT22;52989;48.796;9.806;2023-05-15T01:01:02;10.20;99.90
66184;DHT22;52989;48.796;9.806;2023-05-15T01:03:28;10.70;99.90
66184;DHT22;52989;48.796;9.806;2023-05-15T01:05:53;10.90;99.90
66184;DHT22;52989;48.796;9.806;2023-05-15T01:08:20;11.30;99.90
66184;DHT22;52989;48.796;9.806;2023-05-15T01:10:47;11.10;99.90
66184;DHT22;52989;48.796;9.806;2023-05-15T01:13:14;11.00;99.90
66184;DHT22;52989;48.796;9.806;2023-05-15T01:15:40;11.10;99.90
66184;DHT22;52989;48.796;9.806;2023-05-15T01:18:05;10.80;99.90
66184;DHT22;52989;48.796;9.806;2023-05-15T01:20:38;11.20;99.90
66184;DHT22;52989;48.796;9.806;2023-05-15T01:23:18;11.30;99.90
66184;DHT22;52989;48.796;9.806;2023-05-15T01:26:03;11.10;99.90
66184;DHT22;52989;48.796;9.806;2023-05-15T01:28:35;11.10;99.90
66184;DHT22;52989;48.796;9.806;2023-05-15T01:31:04;11.10;99.90
66184;DHT22;52989;48.796;9.806;2023-05-15T01:33:33;11.40;99.90
66184;DHT22;52989;48.796;9.806;2023-05-15T01:36:02;11.30;99.90
66184;DHT22;52989;48.796;9.806;2023-05-15T01:38:35;11.10;99.90
66184;DHT22;52989;48.796;9.806;2023-05-15T01:43:47;11.40;99.90
66184;DHT22;52989;48.796;9.806;2023-05-15T01:46:13;11.60;99.90
66184;DHT22;52989;48.796;9.806;2023-05-15T01:48:42;11.60;99.90
66184;DHT22;52989;48.796;9.806;2023-05-15T01:51:08;11.10;99.90
66184;DHT22;52989;48.796;9.806;2023-05-15T01:53:35;10.90;99.90
66184;DHT22;52989;48.796;9.806;2023-05-15T01:56:01;10.70;99.90
66184;DHT22;52989;48.796;9.806;2023-05-15T01:58:28;10.60;99.90
66184;DHT22;52989;48.796;9.806;2023-05-15T02:00:55;10.50;99.90
66184;DHT22;52989;48.796;9.806;2023-05-15T02:03:20;10.40;99.90
66184;DHT22;52989;48.796;9.806;2023-05-15T02:05:46;10.40;99.90
66184;DHT22;52989;48.796;9.806;2023-05-15T02:08:12;10.40;99.90
66184;DHT22;52989;48.796;9.806;2023-05-15T02:10:38;10.30;99.90
66184;DHT22;52989;48.796;9.806;2023-05-15T02:13:04;10.40;99.90
66184;DHT22;52989;48.796;9.806;2023-05-15T02:15:31;10.50;99.90
66184;DHT22;52989;48.796;9.806;2023-05-15T02:17:57;10.60;99.90
66184;DHT22;52989;48.796;9.806;2023-05-15T02:20:22;11.10;99.90
66184;DHT22;52989;48.796;9.806;2023-05-15T02:22:48;11.50;99.90
66184;DHT22;52989;48.796;9.806;2023-05-15T02:25:13;11.10;99.90
66184;DHT22;52989;48.796;9.806;2023-05-15T02:27:43;10.90;99.90
66184;DHT22;52989;48.796;9.806;2023-05-15T02:37:52;11.50;99.90
66184;DHT22;52989;48.796;9.806;2023-05-15T02:40:19;11.40;99.90
66184;DHT22;52989;48.796;9.806;2023-05-15T02:42:45;11.20;99.90
66184;DHT22;52989;48.796;9.806;2023-05-15T02:45:11;11.10;99.90
66184;DHT22;52989;48.796;9.806;2023-05-15T02:47:38;11.00;99.90
66184;DHT22;52989;48.796;9.806;2023-05-15T02:50:05;10.80;99.90
66184;DHT22;52989;48.796;9.806;2023-05-15T02:52:32;11.10;99.90
66184;DHT22;52989;48.796;9.806;2023-05-15T02:54:57;10.90;99.90
66184;DHT22;52989;48.796;9.806;2023-05-15T02:57:23;10.90;99.90
66184;DHT22;52989;48.796;9.806;2023-05-15T02:59:48;11.00;99.90
66184;DHT22;52989;48.796;9.806;2023-05-15T03:02:14;11.30;99.90
66184;DHT22;52989;48.796;9.806;2023-05-15T03:04:39;11.60;99.90
66184;DHT22;52989;48.796;9.806;2023-05-15T03:07:05;11.80;99.90
66184;DHT22;52989;48.796;9.806;2023-05-15T03:09:30;11.90;99.90
66184;DHT22;52989;48.796;9.806;2023-05-15T03:11:56;11.50;99.90
66184;DHT22;52989;48.796;9.806;2023-05-15T03:14:21;11.80;99.90
66184;DHT22;52989;48.796;9.806;2023-05-15T03:16:47;11.80;99.90
66184;DHT22;52989;48.796;9.806;2023-05-15T03:19:12;11.30;99.90
66184;DHT22;52989;48.796;9.806;2023-05-15T03:21:37;11.20;99.90
66184;DHT22;52989;48.796;9.806;2023-05-15T03:24:03;11.00;99.90
66184;DHT22;52989;48.796;9.806;2023-05-15T03:26:28;11.20;99.90
66184;DHT22;52989;48.796;9.806;2023-05-15T03:28:54;10.80;99.90
66184;DHT22;52989;48.796;9.806;2023-05-15T03:31:20;10.60;99.90
66184;DHT22;52989;48.796;9.806;2023-05-15T03:33:45;10.60;99.90
66184;DHT22;52989;48.796;9.806;2023-05-15T03:36:14;10.50;99.90
66184;DHT22;52989;48.796;9.806;2023-05-15T03:38:39;10.70;99.90
66184;DHT22;52989;48.796;9.806;2023-05-15T03:41:05;10.40;99.90
66184;DHT22;52989;48.796;9.806;2023-05-15T03:43:31;10.70;99.90
66184;DHT22;52989;48.796;9.806;2023-05-15T03:45:57;10.40;99.90
66184;DHT22;52989;48.796;9.806;2023-05-15T03:48:23;10.00;99.90
66184;DHT22;52989;48.796;9.806;2023-05-15T03:50:48;9.80;99.90
66184;DHT22;52989;48.796;9.806;2023-05-15T03:53:14;9.90;99.90
66184;DHT22;52989;48.796;9.806;2023-05-15T03:55:39;10.80;99.90
66184;DHT22;52989;48.796;9.806;2023-05-15T03:58:05;10.60;99.90
66184;DHT22;52989;48.796;9.806;2023-05-15T04:00:30;10.40;99.90
66184;DHT22;52989;48.796;9.806;2023-05-15T04:02:56;10.70;99.90
66184;DHT22;52989;48.796;9.806;2023-05-15T04:05:21;10.50;99.90
66184;DHT22;52989;48.796;9.806;2023-05-15T04:07:47;10.10;99.90
66184;DHT22;52989;48.796;9.806;2023-05-15T04:10:12;10.40;99.90
66184;DHT22;52989;48.796;9.806;2023-05-15T04:12:38;10.00;99.90
66184;DHT22;52989;48.796;9.806;2023-05-15T04:17:38;9.90;99.90
66184;DHT22;52989;48.796;9.806;2023-05-15T04:20:03;9.90;99.90
66184;DHT22;52989;48.796;9.806;2023-05-15T04:22:30;10.10;99.90
66184;DHT22;52989;48.796;9.806;2023-05-15T04:24:56;10.10;99.90
66184;DHT22;52989;48.796;9.806;2023-05-15T04:27:21;10.00;99.90
66184;DHT22;52989;48.796;9.806;2023-05-15T04:29:46;9.90;99.90
66184;DHT22;52989;48.796;9.806;2023-05-15T04:32:12;9.80;99.90
66184;DHT22;52989;48.796;9.806;2023-05-15T04:34:37;9.80;99.90
66184;DHT22;52989;48.796;9.806;2023-05-15T04:37:03;9.70;99.90
66184;DHT22;52989;48.796;9.806;2023-05-15T04:39:29;9.70;99.90
66184;DHT22;52989;48.796;9.806;2023-05-15T04:41:54;9.90;99.90
66184;DHT22;52989;48.796;9.806;2023-05-15T04:44:20;9.90;99.90
66184;DHT22;52989;48.796;9.806;2023-05-15T04:46:46;9.90;99.90
66184;DHT22;52989;48.796;9.806;2023-05-15T04:49:12;10.00;99.90
66184;DHT22;52989;48.796;9.806;2023-05-15T04:51:37;10.00;99.90
66184;DHT22;52989;48.796;9.806;2023-05-15T04:54:03;10.10;99.90
66184;DHT22;52989;48.796;9.806;2023-05-15T04:56:29;10.40;99.90
66184;DHT22;52989;48.796;9.806;2023-05-15T04:58:54;10.20;99.90
66184;DHT22;52989;48.796;9.806;2023-05-15T05:01:19;10.80;99.90
66184;DHT22;52989;48.796;9.806;2023-05-15T05:03:45;11.30;99.90
66184;DHT22;52989;48.796;9.806;2023-05-15T05:06:11;11.00;99.90
66184;DHT22;52989;48.796;9.806;2023-05-15T05:08:36;10.80;99.90
66184;DHT22;52989;48.796;9.806;2023-05-15T05:11:03;11.00;99.90
66184;DHT22;52989;48.796;9.806;2023-05-15T05:13:28;11.00;99.90
66184;DHT22;52989;48.796;9.806;2023-05-15T05:15:54;11.00;99.90
66184;DHT22;52989;48.796;9.806;2023-05-15T05:18:19;11.10;99.90
66184;DHT22;52989;48.796;9.806;2023-05-15T05:20:45;11.20;99.90
66184;DHT22;52989;48.796;9.806;2023-05-15T05:23:10;11.40;99.90
66184;DHT22;52989;48.796;9.806;2023-05-15T05:25:38;11.70;99.90
66184;DHT22;52989;48.796;9.806;2023-05-15T05:28:04;12.00;99.90
66184;DHT22;52989;48.796;9.806;2023-05-15T05:30:30;12.30;99.90
66184;DHT22;52989;48.796;9.806;2023-05-15T05:32:55;12.10;99.90
66184;DHT22;52989;48.796;9.806;2023-05-15T05:35:20;12.40;99.90
66184;DHT22;52989;48.796;9.806;2023-05-15T05:37:46;12.50;99.90
66184;DHT22;52989;48.796;9.806;2023-05-15T05:40:12;12.40;99.90
66184;DHT22;52989;48.796;9.806;2023-05-15T05:42:37;12.30;99.90
66184;DHT22;52989;48.796;9.806;2023-05-15T05:45:03;12.00;99.90
66184;DHT22;52989;48.796;9.806;2023-05-15T05:47:29;12.30;99.90
66184;DHT22;52989;48.796;9.806;2023-05-15T05:49:54;12.40;99.90
66184;DHT22;52989;48.796;9.806;2023-05-15T05:52:20;12.70;99.90
66184;DHT22;52989;48.796;9.806;2023-05-15T05:54:45;12.50;99.90
66184;DHT22;52989;48.796;9.806;2023-05-15T05:57:12;12.60;99.90
66184;DHT22;52989;48.796;9.806;2023-05-15T05:59:38;12.80;99.90
66184;DHT22;52989;48.796;9.806;2023-05-15T06:02:04;12.80;99.90
66184;DHT22;52989;48.796;9.806;2023-05-15T06:04:30;12.80;99.90
66184;DHT22;52989;48.796;9.806;2023-05-15T06:06:56;13.20;99.90
66184;DHT22;52989;48.796;9.806;2023-05-15T06:09:22;13.00;99.90
66184;DHT22;52989;48.796;9.806;2023-05-15T06:11:47;13.10;99.90
66184;DHT22;52989;48.796;9.806;2023-05-15T06:14:13;13.20;99.90
66184;DHT22;52989;48.796;9.806;2023-05-15T06:16:38;13.10;99.90
66184;DHT22;52989;48.796;9.806;2023-05-15T06:19:04;13.20;99.90
66184;DHT22;52989;48.796;9.806;2023-05-15T06:21:30;12.90;99.90
66184;DHT22;52989;48.796;9.806;2023-05-15T06:23:55;13.50;99.90
66184;DHT22;52989;48.796;9.806;2023-05-15T06:26:23;13.50;99.90
66184;DHT22;52989;48.796;9.806;2023-05-15T06:28:49;13.60;99.90
66184;DHT22;52989;48.796;9.806;2023-05-15T06:31:15;13.70;99.90
66184;DHT22;52989;48.796;9.806;2023-05-15T06:33:41;13.70;99.90
66184;DHT22;52989;48.796;9.806;2023-05-15T06:36:07;13.70;99.90
66184;DHT22;52989;48.796;9.806;2023-05-15T06:38:33;13.40;99.90
66184;DHT22;52989;48.796;9.806;2023-05-15T06:40:58;13.30;99.90
66184;DHT22;52989;48.796;9.806;2023-05-15T06:43:24;13.20;99.90
66184;DHT22;52989;48.796;9.806;2023-05-15T06:45:49;13.40;99.90
66184;DHT22;52989;48.796;9.806;2023-05-15T06:48:15;13.60;99.90
66184;DHT22;52989;48.796;9.806;2023-05-15T06:50:40;13.40;99.90
66184;DHT22;52989;48.796;9.806;2023-05-15T06:53:06;13.10;99.90
66184;DHT22;52989;48.796;9.806;2023-05-15T06:55:31;13.30;99.90
66184;DHT22;52989;48.796;9.806;2023-05-15T06:57:58;13.40;99.90
66184;DHT22;52989;48.796;9.806;2023-05-15T07:00:24;13.10;99.90
66184;DHT22;52989;48.796;9.806;2023-05-15T07:02:50;13.40;99.90
66184;DHT22;52989;48.796;9.806;2023-05-15T07:05:15;13.30;99.90
66184;DHT22;52989;48.796;9.806;2023-05-15T07:07:41;13.20;99.90
66184;DHT22;52989;48.796;9.806;2023-05-15T07:10:07;13.20;99.90
66184;DHT22;52989;48.796;9.806;2023-05-15T07:12:33;13.30;99.90
66184;DHT22;52989;48.796;9.806;2023-05-15T07:14:58;13.50;99.90
66184;DHT22;52989;48.796;9.806;2023-05-15T07:17:24;13.30;99.90
66184;DHT22;52989;48.796;9.806;2023-05-15T07:19:49;13.30;99.90
66184;DHT22;52989;48.796;9.806;2023-05-15T07:22:15;13.70;99.90
66184;DHT22;52989;48.796;9.806;2023-05-15T07:24:40;13.90;99.90
66184;DHT22;52989;48.796;9.806;2023-05-15T07:27:06;13.70;99.90
66184;DHT22;52989;48.796;9.806;2023-05-15T07:29:31;13.90;99.90
66184;DHT22;52989;48.796;9.806;2023-05-15T07:31:56;14.30;99.90
66184;DHT22;52989;48.796;9.806;2023-05-15T07:34:22;14.60;99.90
66184;DHT22;52989;48.796;9.806;2023-05-15T07:36:47;14.60;99.60
66184;DHT22;52989;48.796;9.806;2023-05-15T07:39:13;14.70;99.40
66184;DHT22;52989;48.796;9.806;2023-05-15T07:41:38;14.50;99.90
66184;DHT22;52989;48.796;9.806;2023-05-15T07:44:04;14.70;99.70
66184;DHT22;52989;48.796;9.806;2023-05-15T07:46:30;14.60;99.90
66184;DHT22;52989;48.796;9.806;2023-05-15T07:48:55;14.30;99.60
66184;DHT22;52989;48.796;9.806;2023-05-15T07:51:21;14.00;99.90
66184;DHT22;52989;48.796;9.806;2023-05-15T07:53:46;14.60;99.90
66184;DHT22;52989;48.796;9.806;2023-05-15T07:56:12;14.90;99.70
66184;DHT22;52989;48.796;9.806;2023-05-15T07:58:37;14.80;99.00
66184;DHT22;52989;48.796;9.806;2023-05-15T08:01:03;14.60;99.10
66184;DHT22;52989;48.796;9.806;2023-05-15T08:03:29;14.30;99.90
66184;DHT22;52989;48.796;9.806;2023-05-15T08:05:54;14.10;99.90
66184;DHT22;52989;48.796;9.806;2023-05-15T08:08:23;14.10;99.90
66184;DHT22;52989;48.796;9.806;2023-05-15T08:10:49;14.60;99.90
66184;DHT22;52989;48.796;9.806;2023-05-15T08:13:15;14.50;99.90
66184;DHT22;52989;48.796;9.806;2023-05-15T08:15:40;14.90;99.50
66184;DHT22;52989;48.796;9.806;2023-05-15T08:18:09;15.30;98.10
66184;DHT22;52989;48.796;9.806;2023-05-15T08:20:35;15.30;97.80
66184;DHT22;52989;48.796;9.806;2023-05-15T08:23:01;15.50;98.50
66184;DHT22;52989;48.796;9.806;2023-05-15T08:25:26;15.80;97.30
66184;DHT22;52989;48.796;9.806;2023-05-15T08:27:52;15.80;97.30
66184;DHT22;52989;48.796;9.806;2023-05-15T08:30:17;16.20;96.30
66184;DHT22;52989;48.796;9.806;2023-05-15T08:32:43;16.40;96.00
66184;DHT22;52989;48.796;9.806;2023-05-15T08:35:13;16.10;95.50
66184;DHT22;52989;48.796;9.806;2023-05-15T08:37:39;15.70;95.90
66184;DHT22;52989;48.796;9.806;2023-05-15T08:40:04;16.00;97.20
66184;DHT22;52989;48.796;9.806;2023-05-15T08:44:58;16.90;95.10
66184;DHT22;52989;48.796;9.806;2023-05-15T08:47:23;16.80;94.10
66184;DHT22;52989;48.796;9.806;2023-05-15T08:52:28;16.80;93.90
66184;DHT22;52989;48.796;9.806;2023-05-15T08:54:54;16.50;95.40
66184;DHT22;52989;48.796;9.806;2023-05-15T08:57:20;16.60;94.60
66184;DHT22;52989;48.796;9.806;2023-05-15T08:59:46;17.20;94.20
66184;DHT22;52989;48.796;9.806;2023-05-15T09:02:14;16.90;94.50
66184;DHT22;52989;48.796;9.806;2023-05-15T09:04:40;17.10;94.10
66184;DHT22;52989;48.796;9.806;2023-05-15T09:07:05;17.80;93.00
66184;DHT22;52989;48.796;9.806;2023-05-15T09:09:31;18.10;92.40
66184;DHT22;52989;48.796;9.806;2023-05-15T09:11:58;17.90;92.20
66184;DHT22;52989;48.796;9.806;2023-05-15T09:14:24;17.90;91.20
66184;DHT22;52989;48.796;9.806;2023-05-15T09:16:50;17.80;92.60
66184;DHT22;52989;48.796;9.806;2023-05-15T09:19:18;17.50;92.20
66184;DHT22;52989;48.796;9.806;2023-05-15T09:21:43;17.30;92.40
66184;DHT22;52989;48.796;9.806;2023-05-15T09:24:16;17.60;93.30
66184;DHT22;52989;48.796;9.806;2023-05-15T09:26:46;17.70;90.10
66184;DHT22;52989;48.796;9.806;2023-05-15T09:29:15;17.90;91.00
66184;DHT22;52989;48.796;9.806;2023-05-15T09:31:42;18.30;88.80
66184;DHT22;52989;48.796;9.806;2023-05-15T09:34:10;17.90;88.00
66184;DHT22;52989;48.796;9.806;2023-05-15T09:36:35;17.90;89.10
66184;DHT22;52989;48.796;9.806;2023-05-15T09:39:07;17.80;87.60
66184;DHT22;52989;48.796;9.806;2023-05-15T09:41:33;17.80;86.00
66184;DHT22;52989;48.796;9.806;2023-05-15T09:43:58;18.10;90.10
66184;DHT22;52989;48.796;9.806;2023-05-15T09:46:24;18.80;86.40
66184;DHT22;52989;48.796;9.806;2023-05-15T09:48:53;19.20;87.00
66184;DHT22;52989;48.796;9.806;2023-05-15T09:51:19;18.90;88.80
66184;DHT22;52989;48.796;9.806;2023-05-15T09:53:51;18.90;85.90
66184;DHT22;52989;48.796;9.806;2023-05-15T09:56:17;19.00;83.90
66184;DHT22;52989;48.796;9.806;2023-05-15T09:58:55;19.10;84.00
66184;DHT22;52989;48.796;9.806;2023-05-15T10:01:21;19.00;84.80
66184;DHT22;52989;48.796;9.806;2023-05-15T10:04:01;18.70;85.00
66184;DHT22;52989;48.796;9.806;2023-05-15T10:06:36;18.40;87.30
66184;DHT22;52989;48.796;9.806;2023-05-15T10:09:02;18.30;86.80
66184;DHT22;52989;48.796;9.806;2023-05-15T10:11:35;17.90;85.40
66184;DHT22;52989;48.796;9.806;2023-05-15T10:14:01;17.90;85.20
66184;DHT22;52989;48.796;9.806;2023-05-15T10:16:27;17.80;88.30
66184;DHT22;52989;48.796;9.806;2023-05-15T10:18:53;17.40;90.10
66184;DHT22;52989;48.796;9.806;2023-05-15T10:21:20;17.30;90.30
66184;DHT22;52989;48.796;9.806;2023-05-15T10:23:47;17.50;86.70
66184;DHT22;52989;48.796;9.806;2023-05-15T10:26:23;17.60;84.90
66184;DHT22;52989;48.796;9.806;2023-05-15T10:28:53;17.50;88.20
66184;DHT22;52989;48.796;9.806;2023-05-15T10:31:19;17.30;88.10
66184;DHT22;52989;48.796;9.806;2023-05-15T10:33:44;17.00;91.90
66184;DHT22;52989;48.796;9.806;2023-05-15T10:36:12;16.80;90.70
66184;DHT22;52989;48.796;9.806;2023-05-15T10:38:38;16.20;95.80
66184;DHT22;52989;48.796;9.806;2023-05-15T10:41:04;15.50;99.70
66184;DHT22;52989;48.796;9.806;2023-05-15T10:43:31;15.20;99.90
66184;DHT22;52989;48.796;9.806;2023-05-15T10:45:57;15.30;99.90
66184;DHT22;52989;48.796;9.806;2023-05-15T10:48:23;15.20;99.90
66184;DHT22;52989;48.796;9.806;2023-05-15T10:50:49;15.20;99.90
66184;DHT22;52989;48.796;9.806;2023-05-15T10:53:15;15.20;99.90
66184;DHT22;52989;48.796;9.806;2023-05-15T10:55:41;15.00;99.90
66184;DHT22;52989;48.796;9.806;2023-05-15T10:58:08;14.80;99.90
66184;DHT22;52989;48.796;9.806;2023-05-15T11:00:40;14.80;99.90
66184;DHT22;52989;48.796;9.806;2023-05-15T11:03:05;14.80;99.90
66184;DHT22;52989;48.796;9.806;2023-05-15T11:06:05;14.60;99.90
66184;DHT22;52989;48.796;9.806;2023-05-15T11:10:45;14.20;99.90
66184;DHT22;52989;48.796;9.806;2023-05-15T11:13:11;14.20;99.90
66184;DHT22;52989;48.796;9.806;2023-05-15T11:15:40;14.20;99.90
66184;DHT22;52989;48.796;9.806;2023-05-15T11:18:06;14.30;99.90
66184;DHT22;52989;48.796;9.806;2023-05-15T11:20:38;14.40;99.90
66184;DHT22;52989;48.796;9.806;2023-05-15T11:23:04;14.50;99.90
66184;DHT22;52989;48.796;9.806;2023-05-15T11:25:30;14.70;99.90
66184;DHT22;52989;48.796;9.806;2023-05-15T11:27:56;15.20;99.90
66184;DHT22;52989;48.796;9.806;2023-05-15T11:30:22;15.10;99.90
66184;DHT22;52989;48.796;9.806;2023-05-15T11:32:59;15.40;99.90
66184;DHT22;52989;48.796;9.806;2023-05-15T11:35:41;15.50;99.90
66184;DHT22;52989;48.796;9.806;2023-05-15T11:41:18;15.00;99.90
66184;DHT22;52989;48.796;9.806;2023-05-15T11:43:46;15.00;99.90
66184;DHT22;52989;48.796;9.806;2023-05-15T11:46:15;14.90;99.90
66184;DHT22;52989;48.796;9.806;2023-05-15T11:48:46;15.10;99.90
66184;DHT22;52989;48.796;9.806;2023-05-15T11:51:16;15.00;99.90
66184;DHT22;52989;48.796;9.806;2023-05-15T11:53:42;14.90;99.90
66184;DHT22;52989;48.796;9.806;2023-05-15T11:56:11;14.80;99.90
66184;DHT22;52989;48.796;9.806;2023-05-15T11:58:38;14.80;99.90
66184;DHT22;52989;48.796;9.806;2023-05-15T12:01:04;15.20;99.90
66184;DHT22;52989;48.796;9.806;2023-05-15T12:03:32;15.80;99.90
66184;DHT22;52989;48.796;9.806;2023-05-15T12:05:58;16.50;99.90
66184;DHT22;52989;48.796;9.806;2023-05-15T12:08:25;16.80;99.90
66184;DHT22;52989;48.796;9.806;2023-05-15T12:10:51;16.80;99.90
66184;DHT22;52989;48.796;9.806;2023-05-15T12:13:16;16.70;99.90
66184;DHT22;52989;48.796;9.806;2023-05-15T12:15:45;16.80;99.90
66184;DHT22;52989;48.796;9.806;2023-05-15T12:18:11;16.90;99.50
66184;DHT22;52989;48.796;9.806;2023-05-15T12:20:38;16.70;99.90
66184;DHT22;52989;48.796;9.806;2023-05-15T12:23:05;16.20;99.90
66184;DHT22;52989;48.796;9.806;2023-05-15T12:25:31;15.90;99.90
66184;DHT22;52989;48.796;9.806;2023-05-15T12:27:59;16.40;97.20
66184;DHT22;52989;48.796;9.806;2023-05-15T12:30:25;16.30;99.90
66184;DHT22;52989;48.796;9.806;2023-05-15T12:32:51;16.70;91.20
66184;DHT22;52989;48.796;9.806;2023-05-15T12:35:17;16.90;96.10
66184;DHT22;52989;48.796;9.806;2023-05-15T12:37:46;17.10;85.40
66184;DHT22;52989;48.796;9.806;2023-05-15T12:40:11;17.30;82.60
66184;DHT22;52989;48.796;9.806;2023-05-15T12:42:41;17.40;83.20
66184;DHT22;52989;48.796;9.806;2023-05-15T12:45:14;17.20;88.50
66184;DHT22;52989;48.796;9.806;2023-05-15T12:47:40;17.00;92.90
66184;DHT22;52989;48.796;9.806;2023-05-15T12:50:11;17.30;83.50
66184;DHT22;52989;48.796;9.806;2023-05-15T12:52:36;17.60;85.80
66184;DHT22;52989;48.796;9.806;2023-05-15T12:55:02;17.40;91.00
66184;DHT22;52989;48.796;9.806;2023-05-15T12:57:28;18.10;83.80
66184;DHT22;52989;48.796;9.806;2023-05-15T12:59:53;18.20;74.20
66184;DHT22;52989;48.796;9.806;2023-05-15T13:02:19;18.40;75.20
66184;DHT22;52989;48.796;9.806;2023-05-15T13:04:47;18.50;75.20
66184;DHT22;52989;48.796;9.806;2023-05-15T13:07:13;18.70;73.70
66184;DHT22;52989;48.796;9.806;2023-05-15T13:09:41;18.60;72.00
66184;DHT22;52989;48.796;9.806;2023-05-15T13:12:06;18.40;70.60
66184;DHT22;52989;48.796;9.806;2023-05-15T13:14:32;18.10;71.40
66184;DHT22;52989;48.796;9.806;2023-05-15T13:16:59;18.30;74.10
66184;DHT22;52989;48.796;9.806;2023-05-15T13:19:26;18.60;74.60
66184;DHT22;52989;48.796;9.806;2023-05-15T13:21:52;18.90;77.10
66184;DHT22;52989;48.796;9.806;2023-05-15T13:24:19;18.70;74.00
66184;DHT22;52989;48.796;9.806;2023-05-15T13:26:44;18.80;73.50
66184;DHT22;52989;48.796;9.806;2023-05-15T13:29:10;18.90;72.60
66184;DHT22;52989;48.796;9.806;2023-05-15T13:31:36;19.00;74.00
66184;DHT22;52989;48.796;9.806;2023-05-15T13:34:01;19.00;70.40
66184;DHT22;52989;48.796;9.806;2023-05-15T13:36:28;18.90;70.40
66184;DHT22;52989;48.796;9.806;2023-05-15T13:38:53;18.80;67.60
66184;DHT22;52989;48.796;9.806;2023-05-15T13:41:19;19.20;68.30
66184;DHT22;52989;48.796;9.806;2023-05-15T13:43:46;18.80;67.90
66184;DHT22;52989;48.796;9.806;2023-05-15T13:46:13;19.00;65.60
66184;DHT22;52989;48.796;9.806;2023-05-15T13:48:39;19.10;65.70
66184;DHT22;52989;48.796;9.806;2023-05-15T13:51:04;19.30;64.80
66184;DHT22;52989;48.796;9.806;2023-05-15T13:53:30;19.30;64.70
66184;DHT22;52989;48.796;9.806;2023-05-15T13:55:56;19.10;64.20
66184;DHT22;52989;48.796;9.806;2023-05-15T13:58:21;19.40;65.50
66184;DHT22;52989;48.796;9.806;2023-05-15T14:00:50;19.40;67.10
66184;DHT22;52989;48.796;9.806;2023-05-15T14:03:16;19.40;65.30
66184;DHT22;52989;48.796;9.806;2023-05-15T14:05:41;19.20;63.60
66184;DHT22;52989;48.796;9.806;2023-05-15T14:08:07;19.20;66.60
66184;DHT22;52989;48.796;9.806;2023-05-15T14:10:34;19.40;66.90
66184;DHT22;52989;48.796;9.806;2023-05-15T14:13:00;19.70;67.00
66184;DHT22;52989;48.796;9.806;2023-05-15T14:15:25;19.70;64.30
66184;DHT22;52989;48.796;9.806;2023-05-15T14:17:50;19.60;67.30
66184;DHT22;52989;48.796;9.806;2023-05-15T14:20:16;19.50;64.70
66184;DHT22;52989;48.796;9.806;2023-05-15T14:22:42;19.30;70.70
66184;DHT22;52989;48.796;9.806;2023-05-15T14:25:07;19.40;66.30
66184;DHT22;52989;48.796;9.806;2023-05-15T14:27:33;19.90;66.80
66184;DHT22;52989;48.796;9.806;2023-05-15T14:29:59;20.30;63.10
66184;DHT22;52989;48.796;9.806;2023-05-15T14:32:25;20.20;64.20
66184;DHT22;52989;48.796;9.806;2023-05-15T14:34:50;20.00;64.80
66184;DHT22;52989;48.796;9.806;2023-05-15T14:37:17;19.90;66.00
66184;DHT22;52989;48.796;9.806;2023-05-15T14:39:42;19.80;64.60
66184;DHT22;52989;48.796;9.806;2023-05-15T14:42:08;19.80;64.10
66184;DHT22;52989;48.796;9.806;2023-05-15T14:44:33;19.70;61.80
66184;DHT22;52989;48.796;9.806;2023-05-15T14:49:30;19.90;62.50
66184;DHT22;52989;48.796;9.806;2023-05-15T14:51:56;20.10;62.80
66184;DHT22;52989;48.796;9.806;2023-05-15T14:54:23;19.90;63.80
66184;DHT22;52989;48.796;9.806;2023-05-15T14:56:49;19.50;64.70
66184;DHT22;52989;48.796;9.806;2023-05-15T14:59:14;19.60;68.60
66184;DHT22;52989;48.796;9.806;2023-05-15T15:01:40;19.60;63.80
66184;DHT22;52989;48.796;9.806;2023-05-15T15:04:05;19.70;64.50
66184;DHT22;52989;48.796;9.806;2023-05-15T15:06:31;19.80;65.20
66184;DHT22;52989;48.796;9.806;2023-05-15T15:08:56;19.80;65.80
66184;DHT22;52989;48.796;9.806;2023-05-15T15:11:21;20.10;67.00
66184;DHT22;52989;48.796;9.806;2023-05-15T15:13:47;19.70;67.30
66184;DHT22;52989;48.796;9.806;2023-05-15T15:16:12;19.40;72.50
66184;DHT22;52989;48.796;9.806;2023-05-15T15:18:38;18.90;69.90
66184;DHT22;52989;48.796;9.806;2023-05-15T15:21:03;18.50;70.40
66184;DHT22;52989;48.796;9.806;2023-05-15T15:23:29;18.30;70.90
66184;DHT22;52989;48.796;9.806;2023-05-15T15:25:54;18.60;68.60
66184;DHT22;52989;48.796;9.806;2023-05-15T15:28:20;18.90;67.60
66184;DHT22;52989;48.796;9.806;2023-05-15T15:30:45;19.30;65.80
66184;DHT22;52989;48.796;9.806;2023-05-15T15:33:11;19.50;64.40
66184;DHT22;52989;48.796;9.806;2023-05-15T15:35:36;19.50;62.70
66184;DHT22;52989;48.796;9.806;2023-05-15T15:38:02;19.40;62.20
66184;DHT22;52989;48.796;9.806;2023-05-15T15:40:27;19.00;66.40
66184;DHT22;52989;48.796;9.806;2023-05-15T15:42:53;18.60;68.30
66184;DHT22;52989;48.796;9.806;2023-05-15T15:45:19;18.80;68.00
66184;DHT22;52989;48.796;9.806;2023-05-15T15:47:44;18.70;66.70
66184;DHT22;52989;48.796;9.806;2023-05-15T15:50:10;18.60;72.00
66184;DHT22;52989;48.796;9.806;2023-05-15T15:52:35;18.10;76.70